Terminal Aerodrome Forecast
Issued by NWS

Home | Current Version | Previous Version | Text Only | Print | Product List | Glossary On
Versions: 1 2 3 4 5 6 7 8 9 10 11 12 13 14 15 16 17
432
FTUS43 KICT 112255 AAD
TAFHUT
TAF AMD
KHUT 112255Z 1123/1218 17005KT P6SM SKC
     FM120400 22005KT P6SM SCT250
     FM120700 27007KT P6SM SCT250
     FM121100 34012KT P6SM SCT200=

USA.gov is the U.S. government's official web portal to all federal, state and local government web resources and services.